createdAt,value
2023-02-26T00:01:20.066Z,99354.34
2023-02-26T00:04:48.020Z,99351.31
2023-02-26T00:07:56.033Z,99341.75
2023-02-26T00:11:04.007Z,99335.17
2023-02-26T00:14:12.182Z,99335.61
2023-02-26T00:17:22.055Z,99320.94
2023-02-26T00:20:49.825Z,99315.85
2023-02-26T00:23:57.913Z,99313.26
2023-02-26T00:27:07.019Z,99313.27
2023-02-26T00:30:35.446Z,99313.64
2023-02-26T00:33:44.425Z,99305.80
2023-02-26T00:36:37.402Z,99306.77
2023-02-26T00:39:45.544Z,99314.36
2023-02-26T00:43:13.578Z,99312.83
2023-02-26T00:46:41.647Z,99307.30
2023-02-26T00:49:53.567Z,99302.72
2023-02-26T00:53:01.908Z,99299.13
2023-02-26T00:56:10.378Z,99293.04
2023-02-26T00:59:18.811Z,99299.35
2023-02-26T01:02:26.819Z,99287.34
2023-02-26T01:05:55.019Z,99298.30
2023-02-26T01:09:22.999Z,99305.54
2023-02-26T01:12:31.298Z,99322.27
2023-02-26T01:15:00.943Z,99361.89
2023-02-26T01:18:10.693Z,99269.83
2023-02-26T01:20:40.144Z,99305.65
2023-02-26T01:24:08.641Z,99285.20
2023-02-26T01:27:17.033Z,99233.48
2023-02-26T01:30:05.101Z,99265.44
2023-02-26T01:33:33.254Z,99275.55
2023-02-26T01:36:22.453Z,99266.74
2023-02-26T01:39:50.548Z,99275.17
2023-02-26T01:43:18.837Z,99253.23
2023-02-26T01:46:27.694Z,99257.35
2023-02-26T01:49:56.155Z,99260.85
2023-02-26T01:53:04.165Z,99251.81
2023-02-26T01:56:12.317Z,99251.04
2023-02-26T01:58:40.584Z,99248.14
2023-02-26T02:02:04.638Z,99251.14
2023-02-26T02:05:13.441Z,99253.36
2023-02-26T02:08:41.436Z,99253.61
2023-02-26T02:11:49.941Z,99253.75
2023-02-26T02:14:58.346Z,99263.02
2023-02-26T02:18:06.762Z,99260.42
2023-02-26T02:21:15.078Z,99265.60
2023-02-26T02:24:23.060Z,99268.37
2023-02-26T02:27:31.393Z,99276.41
2023-02-26T02:30:47.656Z,99281.86
2023-02-26T02:34:15.490Z,99272.85
2023-02-26T02:37:43.618Z,99260.62
2023-02-26T02:40:33.106Z,99270.84
2023-02-26T02:43:42.360Z,99260.80
2023-02-26T02:46:50.938Z,99261.34
2023-02-26T02:49:59.655Z,99262.16
2023-02-26T02:53:23.482Z,99257.45
2023-02-26T02:56:51.497Z,99247.92
2023-02-26T03:00:19.617Z,99251.14
2023-02-26T03:03:47.839Z,99249.60
2023-02-26T03:06:16.640Z,99254.16
2023-02-26T03:09:04.713Z,99259.10
2023-02-26T03:12:13.595Z,99261.04
2023-02-26T03:15:41.527Z,99262.45
2023-02-26T03:19:09.843Z,99275.36
2023-02-26T03:22:38.342Z,99284.14
2023-02-26T03:25:46.900Z,99274.61
2023-02-26T03:28:32.620Z,99266.12
2023-02-26T03:32:01.395Z,99265.35
2023-02-26T03:35:10.295Z,99262.72
2023-02-26T03:38:18.311Z,99258.03
2023-02-26T03:41:30.508Z,99255.21
2023-02-26T03:44:19.145Z,99250.06
2023-02-26T03:47:47.130Z,99252.19
2023-02-26T03:51:15.457Z,99256.58
2023-02-26T03:54:46.776Z,99261.43
2023-02-26T03:57:39.122Z,99260.34
2023-02-26T04:01:07.498Z,99260.88
2023-02-26T04:04:35.887Z,99261.06
2023-02-26T04:07:44.076Z,99259.17
2023-02-26T04:10:13.034Z,99261.70
2023-02-26T04:13:41.126Z,99258.27
2023-02-26T04:17:09.342Z,99260.02
2023-02-26T04:20:03.804Z,99252.95
2023-02-26T04:23:13.179Z,99256.89
2023-02-26T04:26:41.189Z,99252.68
2023-02-26T04:29:50.063Z,99244.56
2023-02-26T04:32:18.352Z,99240.96
2023-02-26T04:35:46.452Z,99248.25
2023-02-26T04:39:14.549Z,99249.41
2023-02-26T04:42:22.731Z,99248.16
2023-02-26T04:45:51.314Z,99248.17
2023-02-26T04:49:19.393Z,99251.63
2023-02-26T04:52:27.666Z,99249.39
2023-02-26T04:55:35.772Z,99245.92
2023-02-26T04:59:03.837Z,99245.55
2023-02-26T05:02:12.467Z,99248.27
2023-02-26T05:05:36.239Z,99246.72
2023-02-26T05:09:04.187Z,99245.66
2023-02-26T05:12:00.122Z,99248.77
2023-02-26T05:15:08.310Z,99244.10
2023-02-26T05:18:18.310Z,99246.44
2023-02-26T05:21:46.453Z,99242.34
2023-02-26T05:24:34.877Z,99245.56
2023-02-26T05:27:43.715Z,99247.42
2023-02-26T05:30:51.963Z,99239.54
2023-02-26T05:33:41.035Z,99238.48
2023-02-26T05:37:09.412Z,99240.58
2023-02-26T05:40:37.313Z,99242.02
2023-02-26T05:44:05.344Z,99246.40
2023-02-26T05:47:33.693Z,99248.89
2023-02-26T05:50:42.101Z,99243.52
2023-02-26T05:53:50.707Z,99251.33
2023-02-26T05:57:19.045Z,99247.27
2023-02-26T06:00:27.610Z,99242.21
2023-02-26T06:03:36.137Z,99242.64
2023-02-26T06:06:45.197Z,99247.49
2023-02-26T06:09:34.069Z,99254.91
2023-02-26T06:13:01.912Z,99259.14
2023-02-26T06:16:29.915Z,99263.65
2023-02-26T06:18:59.362Z,99272.36
2023-02-26T06:21:48.230Z,99280.08
2023-02-26T06:24:56.355Z,99286.45
2023-02-26T06:28:24.306Z,99287.70
2023-02-26T06:30:56.713Z,99292.05
2023-02-26T06:33:45.749Z,99287.22
2023-02-26T06:37:13.856Z,99296.10
2023-02-26T06:40:02.876Z,99299.64
2023-02-26T06:43:11.349Z,99303.33
2023-02-26T06:45:40.584Z,99305.95
2023-02-26T06:48:08.360Z,99304.75
2023-02-26T06:51:36.585Z,99311.45
2023-02-26T06:54:45.216Z,99310.03
2023-02-26T06:58:13.082Z,99312.45
2023-02-26T07:01:21.070Z,99317.75
2023-02-26T07:04:29.105Z,99316.17
2023-02-26T07:07:19.607Z,99314.86
2023-02-26T07:10:08.047Z,99316.52
2023-02-26T07:13:16.463Z,99315.61
2023-02-26T07:15:46.388Z,99311.08
2023-02-26T07:18:58.712Z,99319.76
2023-02-26T07:22:26.730Z,99323.27
2023-02-26T07:25:36.689Z,99319.35
2023-02-26T07:29:04.682Z,99323.91
2023-02-26T07:32:32.776Z,99329.08
2023-02-26T07:35:42.697Z,99331.06
2023-02-26T07:38:51.431Z,99337.34
2023-02-26T07:42:00.395Z,99347.38
2023-02-26T07:45:10.251Z,99350.42
2023-02-26T07:48:18.466Z,99355.15
2023-02-26T07:51:46.355Z,99357.64
2023-02-26T07:54:35.466Z,99354.58
2023-02-26T07:58:03.388Z,99366.52
2023-02-26T08:01:31.236Z,99366.54
2023-02-26T08:04:23.422Z,99367.86
2023-02-26T08:07:51.317Z,99366.83
2023-02-26T08:11:01.405Z,99377.27
2023-02-26T08:14:29.356Z,99381.75
2023-02-26T08:17:18.090Z,99382.26
2023-02-26T08:20:07.196Z,99380.80
2023-02-26T08:23:35.050Z,99384.04
2023-02-26T08:26:07.226Z,99392.61
2023-02-26T08:29:35.224Z,99397.34
2023-02-26T08:32:43.265Z,99404.25
2023-02-26T08:35:21.146Z,99410.34
2023-02-26T08:38:49.236Z,99406.41
2023-02-26T08:41:58.317Z,99414.05
2023-02-26T08:45:26.380Z,99415.79
2023-02-26T08:48:14.073Z,99420.73
2023-02-26T08:51:23.445Z,99430.58
2023-02-26T08:54:51.332Z,99426.08
2023-02-26T08:58:00.134Z,99431.73
2023-02-26T09:01:28.403Z,99433.23
2023-02-26T09:04:36.966Z,99434.60
2023-02-26T09:07:44.785Z,99447.60
2023-02-26T09:11:12.694Z,99450.73
2023-02-26T09:14:41.008Z,99448.45
2023-02-26T09:17:08.880Z,99446.58
2023-02-26T09:19:58.293Z,99440.42
2023-02-26T09:23:07.212Z,99437.48
2023-02-26T09:26:15.521Z,99450.90
2023-02-26T09:29:27.052Z,99456.25
2023-02-26T09:32:36.970Z,99458.63
2023-02-26T09:35:25.889Z,99456.31
2023-02-26T09:38:53.820Z,99454.69
2023-02-26T09:42:21.593Z,99456.45
2023-02-26T09:45:49.672Z,99457.27
2023-02-26T09:49:17.770Z,99458.05
2023-02-26T09:52:45.809Z,99455.65
2023-02-26T09:55:55.838Z,99462.14
2023-02-26T09:59:23.759Z,99466.23
2023-02-26T10:02:32.577Z,99463.73
2023-02-26T10:06:00.595Z,99467.83
2023-02-26T10:09:28.747Z,99469.47
2023-02-26T10:12:56.533Z,99472.77
2023-02-26T10:16:24.626Z,99481.20
2023-02-26T10:19:52.322Z,99486.33
2023-02-26T10:23:21.341Z,99495.83
2023-02-26T10:26:49.376Z,99495.34
2023-02-26T10:30:17.288Z,99493.77
2023-02-26T10:33:45.063Z,99489.86
2023-02-26T10:36:54.044Z,99492.10
2023-02-26T10:40:22.001Z,99497.39
2023-02-26T10:43:50.080Z,99509.94
2023-02-26T10:47:17.993Z,99526.77
2023-02-26T10:50:46.066Z,99519.73
2023-02-26T10:54:14.054Z,99516.36
2023-02-26T10:57:26.326Z,99518.70
2023-02-26T11:00:54.547Z,99509.08
2023-02-26T11:04:02.640Z,99503.84
2023-02-26T11:07:32.316Z,99507.39
2023-02-26T11:10:58.807Z,99503.33
2023-02-26T11:14:29.325Z,99516.75
2023-02-26T11:17:34.821Z,99518.00
2023-02-26T11:21:02.678Z,99505.13
2023-02-26T11:24:30.765Z,99497.61
2023-02-26T11:26:59.111Z,99497.13
2023-02-26T11:30:08.092Z,99503.15
2023-02-26T11:33:36.118Z,99520.60
2023-02-26T11:36:44.641Z,99525.63
2023-02-26T11:39:52.765Z,99528.54
2023-02-26T11:43:20.780Z,99534.12
2023-02-26T11:46:29.087Z,99531.17
2023-02-26T11:48:57.989Z,99526.73
2023-02-26T11:52:07.065Z,99515.27
2023-02-26T11:55:15.432Z,99531.56
2023-02-26T11:58:43.382Z,99548.48
2023-02-26T12:02:11.394Z,99544.88
2023-02-26T12:05:19.683Z,99540.48
2023-02-26T12:08:08.802Z,99543.58
2023-02-26T12:11:17.063Z,99557.39
2023-02-26T12:14:44.834Z,99560.81
2023-02-26T12:18:14.782Z,99566.70
2023-02-26T12:21:41.088Z,99581.23
2023-02-26T12:24:49.707Z,99597.98
2023-02-26T12:27:19.569Z,99587.24
2023-02-26T12:30:47.954Z,99580.61
2023-02-26T12:33:16.416Z,99593.20
2023-02-26T12:36:24.528Z,99604.24
2023-02-26T12:39:52.689Z,99600.11
2023-02-26T12:43:20.695Z,99604.99
2023-02-26T12:46:29.628Z,99602.70
2023-02-26T12:49:57.693Z,99605.14
2023-02-26T12:52:45.890Z,99613.74
2023-02-26T12:55:14.596Z,99608.27
2023-02-26T12:58:02.985Z,99611.38
2023-02-26T13:01:33.695Z,99611.98
2023-02-26T13:04:59.033Z,99608.91
2023-02-26T13:08:07.134Z,99616.08
2023-02-26T13:11:15.112Z,99616.38
2023-02-26T13:14:43.132Z,99620.23
2023-02-26T13:17:52.037Z,99619.30
2023-02-26T13:20:21.346Z,99628.94
2023-02-26T13:23:09.924Z,99630.70
2023-02-26T13:26:37.924Z,99619.41
2023-02-26T13:30:05.911Z,99630.81
2023-02-26T13:32:38.397Z,99630.11
2023-02-26T13:35:07.841Z,99633.92
2023-02-26T13:37:57.932Z,99631.42
2023-02-26T13:40:29.423Z,99631.71
2023-02-26T13:43:33.450Z,99653.48
2023-02-26T13:46:44.246Z,99655.97
2023-02-26T13:49:37.141Z,99667.55
2023-02-26T13:53:05.156Z,99657.31
2023-02-26T13:56:33.158Z,99670.10
2023-02-26T14:00:01.081Z,99680.91
2023-02-26T14:03:10.972Z,99685.73
2023-02-26T14:06:19.874Z,99680.03
2023-02-26T14:09:28.683Z,99672.63
2023-02-26T14:12:17.598Z,99663.42
2023-02-26T14:15:45.623Z,99661.16
2023-02-26T14:18:55.815Z,99673.02
2023-02-26T14:22:05.167Z,99671.10
2023-02-26T14:25:15.239Z,99665.12
2023-02-26T14:28:07.384Z,99658.98
2023-02-26T14:31:18.349Z,99648.58
2023-02-26T14:34:46.184Z,99659.67
2023-02-26T14:38:17.653Z,99662.50
2023-02-26T14:41:45.570Z,99663.73
2023-02-26T14:45:13.409Z,99653.81
2023-02-26T14:48:02.126Z,99651.70
2023-02-26T14:50:47.582Z,99660.21
2023-02-26T14:53:56.387Z,99673.41
2023-02-26T14:57:24.423Z,99682.20
2023-02-26T15:00:52.325Z,99690.15
2023-02-26T15:04:20.015Z,99698.05
2023-02-26T15:07:48.060Z,99699.06
2023-02-26T15:11:15.984Z,99700.80
2023-02-26T15:14:43.930Z,99690.25
2023-02-26T15:17:32.937Z,99682.73
2023-02-26T15:20:41.916Z,99682.19
2023-02-26T15:23:10.897Z,99685.41
2023-02-26T15:25:40.718Z,99679.91
2023-02-26T15:28:08.763Z,99672.16
2023-02-26T15:30:38.251Z,99680.29
2023-02-26T15:33:07.586Z,99688.49
2023-02-26T15:35:37.974Z,99690.92
2023-02-26T15:38:06.957Z,99695.96
2023-02-26T15:40:34.908Z,99703.52
2023-02-26T15:44:03.369Z,99708.14
2023-02-26T15:46:34.102Z,99713.11
2023-02-26T15:49:23.180Z,99709.54
2023-02-26T15:52:19.976Z,99714.15
2023-02-26T15:55:08.300Z,99710.98
2023-02-26T15:57:37.332Z,99718.54
2023-02-26T16:00:07.407Z,99724.48
2023-02-26T16:02:40.264Z,99735.23
2023-02-26T16:06:08.501Z,99748.46
2023-02-26T16:09:32.021Z,99752.73
2023-02-26T16:12:40.502Z,99760.09
2023-02-26T16:16:08.574Z,99752.20
2023-02-26T16:18:57.548Z,99753.27
2023-02-26T16:21:45.503Z,99756.45
2023-02-26T16:24:35.473Z,99757.39
2023-02-26T16:28:03.388Z,99759.48
2023-02-26T16:31:31.230Z,99766.79
2023-02-26T16:34:41.001Z,99777.20
2023-02-26T16:37:12.241Z,99777.11
2023-02-26T16:39:42.895Z,99787.84
2023-02-26T16:42:11.911Z,99790.27
2023-02-26T16:45:19.934Z,99793.84
2023-02-26T16:48:48.123Z,99797.48
2023-02-26T16:51:36.630Z,99801.15
2023-02-26T16:55:04.206Z,99808.13
2023-02-26T16:58:32.427Z,99821.23
2023-02-26T17:02:00.747Z,99822.85
2023-02-26T17:05:10.597Z,99821.82
2023-02-26T17:08:38.491Z,99822.75
2023-02-26T17:12:06.446Z,99828.93
2023-02-26T17:15:34.551Z,99837.95
2023-02-26T17:18:03.651Z,99838.42
2023-02-26T17:21:13.477Z,99835.52
2023-02-26T17:24:26.137Z,99841.52
2023-02-26T17:26:55.321Z,99844.29
2023-02-26T17:30:23.734Z,99850.80
2023-02-26T17:33:33.811Z,99850.21
2023-02-26T17:36:24.374Z,99851.36
2023-02-26T17:39:52.404Z,99849.69
2023-02-26T17:43:01.372Z,99837.63
2023-02-26T17:46:09.510Z,99835.72
2023-02-26T17:49:18.482Z,99833.80
2023-02-26T17:52:46.484Z,99830.77
2023-02-26T17:56:14.493Z,99833.17
2023-02-26T17:59:42.460Z,99836.83
2023-02-26T18:03:10.601Z,99834.58
2023-02-26T18:06:38.740Z,99836.55
2023-02-26T18:10:06.584Z,99836.71
2023-02-26T18:13:35.070Z,99831.84
2023-02-26T18:17:03.637Z,99827.85
2023-02-26T18:20:31.472Z,99826.88
2023-02-26T18:23:40.153Z,99829.73
2023-02-26T18:27:08.608Z,99829.04
2023-02-26T18:30:36.458Z,99831.89
2023-02-26T18:33:45.432Z,99829.64
2023-02-26T18:37:13.454Z,99829.70
2023-02-26T18:40:41.510Z,99832.16
2023-02-26T18:44:09.438Z,99831.53
2023-02-26T18:47:37.222Z,99839.44
2023-02-26T18:51:05.160Z,99838.47
2023-02-26T18:54:15.918Z,99841.84
2023-02-26T18:57:43.891Z,99841.48
2023-02-26T19:00:52.265Z,99845.33
2023-02-26T19:04:20.349Z,99839.15
2023-02-26T19:07:48.011Z,99829.80
2023-02-26T19:11:15.993Z,99844.82
2023-02-26T19:14:43.862Z,99849.13
2023-02-26T19:18:11.800Z,99853.16
2023-02-26T19:21:39.999Z,99856.68
2023-02-26T19:25:07.944Z,99869.68
2023-02-26T19:28:35.694Z,99874.96
2023-02-26T19:32:03.835Z,99878.81
2023-02-26T19:35:31.527Z,99878.59
2023-02-26T19:38:39.888Z,99877.89
2023-02-26T19:42:07.582Z,99875.12
2023-02-26T19:45:35.420Z,99872.87
2023-02-26T19:49:03.068Z,99868.69
2023-02-26T19:52:10.868Z,99871.80
2023-02-26T19:55:39.042Z,99868.08
2023-02-26T19:59:06.823Z,99870.91
2023-02-26T20:02:34.875Z,99878.36
2023-02-26T20:06:02.556Z,99877.82
2023-02-26T20:09:30.676Z,99882.94
2023-02-26T20:12:58.681Z,99888.11
2023-02-26T20:16:26.385Z,99889.74
2023-02-26T20:19:54.419Z,99892.17
2023-02-26T20:23:22.878Z,99898.06
2023-02-26T20:26:50.924Z,99901.86
2023-02-26T20:30:18.588Z,99906.63
2023-02-26T20:33:27.849Z,99910.75
2023-02-26T20:36:55.859Z,99906.42
2023-02-26T20:40:23.370Z,99911.53
2023-02-26T20:43:51.171Z,99920.06
2023-02-26T20:47:18.991Z,99918.61
2023-02-26T20:50:46.975Z,99916.43
2023-02-26T20:53:55.928Z,99919.81
2023-02-26T20:57:04.893Z,99926.94
2023-02-26T21:00:33.008Z,99928.38
2023-02-26T21:04:00.792Z,99926.61
2023-02-26T21:07:28.502Z,99924.23
2023-02-26T21:10:56.341Z,99923.80
2023-02-26T21:14:24.214Z,99923.46
2023-02-26T21:17:52.028Z,99923.58
2023-02-26T21:21:15.694Z,99922.23
2023-02-26T21:24:43.541Z,99917.11
2023-02-26T21:28:11.359Z,99912.95
2023-02-26T21:31:35.352Z,99916.00
2023-02-26T21:35:03.392Z,99921.07
2023-02-26T21:38:11.886Z,99923.95
2023-02-26T21:41:39.725Z,99927.91
2023-02-26T21:45:07.572Z,99925.19
2023-02-26T21:48:35.537Z,99930.26
2023-02-26T21:52:03.300Z,99931.88
2023-02-26T21:55:31.219Z,99930.86
2023-02-26T21:58:59.001Z,99931.38
2023-02-26T22:02:26.809Z,99934.30
2023-02-26T22:05:54.507Z,99937.77
2023-02-26T22:09:22.561Z,99944.02
2023-02-26T22:12:50.499Z,99944.70
2023-02-26T22:16:18.455Z,99952.69
2023-02-26T22:19:07.852Z,99954.77
2023-02-26T22:22:35.873Z,99960.27
2023-02-26T22:26:03.633Z,99960.83
2023-02-26T22:29:31.530Z,99961.02
2023-02-26T22:32:39.531Z,99959.30
2023-02-26T22:36:07.527Z,99963.70
2023-02-26T22:39:35.402Z,99963.64
2023-02-26T22:43:03.085Z,99961.56
2023-02-26T22:46:31.036Z,99960.13
2023-02-26T22:49:59.080Z,99959.83
2023-02-26T22:53:26.888Z,99962.08
2023-02-26T22:56:15.925Z,99959.48
2023-02-26T22:59:43.994Z,99963.45
2023-02-26T23:03:12.005Z,99961.16
2023-02-26T23:06:20.447Z,99963.64
2023-02-26T23:09:48.438Z,99965.71
2023-02-26T23:13:16.241Z,99969.84
2023-02-26T23:16:43.985Z,99967.73
2023-02-26T23:20:11.864Z,99971.30
2023-02-26T23:23:39.712Z,99973.39
2023-02-26T23:27:07.524Z,99972.45
2023-02-26T23:30:35.472Z,99968.84
2023-02-26T23:34:03.196Z,99963.67
2023-02-26T23:37:31.058Z,99968.74
2023-02-26T23:40:20.070Z,99966.17
2023-02-26T23:43:48.320Z,99971.97
2023-02-26T23:47:16.429Z,99983.09
2023-02-26T23:50:25.714Z,99988.04
2023-02-26T23:53:53.570Z,99999.92
2023-02-26T23:57:21.559Z,100004.02
